createdAt,value
2023-02-05T00:01:18.091Z,2.70
2023-02-05T00:03:46.607Z,2.63
2023-02-05T00:06:15.267Z,2.97
2023-02-05T00:08:45.257Z,2.73
2023-02-05T00:11:13.859Z,2.63
2023-02-05T00:13:44.202Z,2.33
2023-02-05T00:16:15.057Z,2.50
2023-02-05T00:18:44.101Z,2.53
2023-02-05T00:21:13.927Z,2.50
2023-02-05T00:23:44.136Z,2.73
2023-02-05T00:26:14.319Z,2.47
2023-02-05T00:28:43.372Z,3.43
2023-02-05T00:31:15.026Z,4.30
2023-02-05T00:33:44.197Z,3.00
2023-02-05T00:36:13.936Z,3.00
2023-02-05T00:38:44.721Z,2.73
2023-02-05T00:41:14.180Z,3.03
2023-02-05T00:43:43.766Z,3.07
2023-02-05T00:46:14.677Z,2.90
2023-02-05T00:48:44.970Z,3.67
2023-02-05T00:51:13.780Z,2.47
2023-02-05T00:53:42.268Z,3.90
2023-02-05T00:56:13.394Z,5.03
2023-02-05T00:58:47.390Z,2.63
2023-02-05T01:01:16.834Z,2.93
2023-02-05T01:03:57.687Z,4.03
2023-02-05T01:06:51.028Z,3.00
2023-02-05T01:09:19.481Z,2.70
2023-02-05T01:11:49.299Z,3.07
2023-02-05T01:14:17.791Z,2.90
2023-02-05T01:16:46.196Z,3.20
2023-02-05T01:19:14.732Z,3.17
2023-02-05T01:22:08.542Z,2.80
2023-02-05T01:24:37.071Z,2.90
2023-02-05T01:27:06.926Z,2.80
2023-02-05T01:29:35.354Z,5.37
2023-02-05T01:32:03.798Z,2.87
2023-02-05T01:34:32.284Z,3.97
2023-02-05T01:37:00.859Z,2.43
2023-02-05T01:39:29.420Z,3.77
2023-02-05T01:41:57.954Z,2.40
2023-02-05T01:44:29.173Z,2.87
2023-02-05T01:46:58.400Z,3.60
2023-02-05T01:49:32.660Z,3.13
2023-02-05T01:52:06.713Z,2.90
2023-02-05T01:54:40.206Z,3.30
2023-02-05T01:57:21.941Z,2.90
2023-02-05T01:59:52.486Z,2.50
2023-02-05T02:02:21.009Z,3.03
2023-02-05T02:04:55.271Z,2.63
2023-02-05T02:07:26.316Z,2.97
2023-02-05T02:09:56.151Z,2.87
2023-02-05T02:12:29.529Z,2.63
2023-02-05T02:15:13.355Z,3.13
2023-02-05T02:17:48.503Z,3.10
2023-02-05T02:20:21.824Z,2.90
2023-02-05T02:23:17.650Z,3.10
2023-02-05T02:26:18.073Z,3.83
2023-02-05T02:28:53.184Z,3.17
2023-02-05T02:31:30.412Z,2.90
2023-02-05T02:34:08.096Z,5.10
2023-02-05T02:36:43.713Z,2.90
2023-02-05T02:39:21.656Z,2.57
2023-02-05T02:41:54.883Z,3.00
2023-02-05T02:44:34.187Z,3.07
2023-02-05T02:47:11.132Z,3.07
2023-02-05T02:50:10.236Z,2.80
2023-02-05T02:52:43.736Z,3.07
2023-02-05T02:55:16.860Z,3.10
2023-02-05T02:57:49.390Z,3.70
2023-02-05T03:00:25.579Z,4.37
2023-02-05T03:03:01.919Z,2.97
2023-02-05T03:05:32.830Z,3.20
2023-02-05T03:08:07.794Z,2.80
2023-02-05T03:11:03.892Z,2.43
2023-02-05T03:13:33.213Z,2.70
2023-02-05T03:16:03.357Z,3.00
2023-02-05T03:18:32.822Z,2.60
2023-02-05T03:21:06.749Z,4.00
2023-02-05T03:23:35.309Z,3.70
2023-02-05T03:26:03.845Z,4.97
2023-02-05T03:28:32.508Z,5.40
2023-02-05T03:31:15.715Z,3.20
2023-02-05T03:33:55.314Z,3.70
2023-02-05T03:36:30.768Z,2.60
2023-02-05T03:39:24.353Z,3.37
2023-02-05T03:42:08.344Z,3.17
2023-02-05T03:45:41.275Z,3.47
2023-02-05T03:48:43.670Z,3.73
2023-02-05T03:51:27.610Z,3.00
2023-02-05T03:54:14.444Z,4.27
2023-02-05T03:56:54.398Z,3.33
2023-02-05T03:59:25.056Z,3.37
2023-02-05T04:01:55.010Z,3.23
2023-02-05T04:04:25.120Z,3.83
2023-02-05T04:06:58.919Z,3.20
2023-02-05T04:09:27.392Z,2.97
2023-02-05T04:11:56.025Z,2.93
2023-02-05T04:14:24.548Z,3.23
2023-02-05T04:16:53.079Z,3.07
2023-02-05T04:19:21.603Z,3.27
2023-02-05T04:21:53.839Z,3.13
2023-02-05T04:24:22.362Z,2.87
2023-02-05T04:26:52.398Z,2.97
2023-02-05T04:29:20.812Z,2.90
2023-02-05T04:31:49.349Z,5.30
2023-02-05T04:34:17.844Z,3.63
2023-02-05T04:36:47.491Z,4.10
2023-02-05T04:39:17.296Z,3.13
2023-02-05T04:41:54.791Z,3.10
2023-02-05T04:44:23.501Z,3.07
2023-02-05T04:46:52.049Z,2.70
2023-02-05T04:49:20.825Z,2.73
2023-02-05T04:51:49.448Z,3.50
2023-02-05T04:54:19.409Z,5.20
2023-02-05T04:56:47.971Z,3.17
2023-02-05T04:59:16.459Z,4.80
2023-02-05T05:01:44.885Z,4.13
2023-02-05T05:04:13.366Z,3.53
2023-02-05T05:06:41.877Z,5.20
2023-02-05T05:09:37.283Z,3.27
2023-02-05T05:12:06.832Z,2.40
2023-02-05T05:14:35.714Z,3.40
2023-02-05T05:17:04.388Z,2.73
2023-02-05T05:19:33.236Z,2.60
2023-02-05T05:22:01.679Z,2.47
2023-02-05T05:24:30.228Z,2.80
2023-02-05T05:27:01.525Z,4.17
2023-02-05T05:29:30.119Z,2.50
2023-02-05T05:31:58.684Z,2.90
2023-02-05T05:34:27.131Z,3.50
2023-02-05T05:36:55.599Z,3.23
2023-02-05T05:39:50.658Z,3.37
2023-02-05T05:42:37.694Z,3.40
2023-02-05T05:45:07.000Z,3.87
2023-02-05T05:47:35.467Z,3.50
2023-02-05T05:50:04.198Z,4.03
2023-02-05T05:52:33.000Z,3.40
2023-02-05T05:55:01.544Z,4.80
2023-02-05T05:57:31.492Z,3.50
2023-02-05T06:00:00.004Z,4.07
2023-02-05T06:02:28.477Z,4.60
2023-02-05T06:04:57.025Z,3.67
2023-02-05T06:07:25.523Z,3.73
2023-02-05T06:09:53.954Z,2.37
2023-02-05T06:12:48.340Z,3.40
2023-02-05T06:15:17.213Z,3.30
2023-02-05T06:17:45.723Z,3.33
2023-02-05T06:20:14.878Z,3.97
2023-02-05T06:22:43.458Z,2.80
2023-02-05T06:25:12.185Z,3.37
2023-02-05T06:27:41.039Z,4.73
2023-02-05T06:30:13.196Z,2.97
2023-02-05T06:32:41.678Z,3.90
2023-02-05T06:35:10.693Z,3.47
2023-02-05T06:37:51.446Z,2.53
2023-02-05T06:40:22.377Z,3.60
2023-02-05T06:42:50.902Z,2.77
2023-02-05T06:45:21.137Z,3.20
2023-02-05T06:47:49.821Z,3.50
2023-02-05T06:50:18.471Z,3.27
2023-02-05T06:52:47.149Z,3.80
2023-02-05T06:55:15.680Z,4.03
2023-02-05T06:57:44.421Z,4.10
2023-02-05T07:00:15.138Z,2.90
2023-02-05T07:02:45.265Z,4.40
2023-02-05T07:05:13.800Z,2.70
2023-02-05T07:07:42.424Z,3.00
2023-02-05T07:10:11.446Z,3.17
2023-02-05T07:12:39.952Z,2.70
2023-02-05T07:15:09.525Z,5.43
2023-02-05T07:17:39.281Z,3.33
2023-02-05T07:20:10.672Z,4.50
2023-02-05T07:22:39.136Z,5.07
2023-02-05T07:25:08.902Z,3.37
2023-02-05T07:28:01.493Z,7.33
2023-02-05T07:30:30.171Z,3.30
2023-02-05T07:33:00.731Z,3.47
2023-02-05T07:35:30.766Z,3.47
2023-02-05T07:37:59.429Z,7.53
2023-02-05T07:40:28.207Z,4.17
2023-02-05T07:42:56.906Z,3.10
2023-02-05T07:45:25.430Z,4.00
2023-02-05T07:47:54.001Z,3.73
2023-02-05T07:50:22.577Z,6.20
2023-02-05T07:52:52.383Z,4.27
2023-02-05T07:55:20.926Z,3.67
2023-02-05T07:57:49.541Z,7.27
2023-02-05T08:00:18.592Z,3.40
2023-02-05T08:02:47.086Z,4.17
2023-02-05T08:05:15.715Z,5.37
2023-02-05T08:07:44.163Z,4.07
2023-02-05T08:10:15.797Z,3.40
2023-02-05T08:12:44.262Z,4.07
2023-02-05T08:15:12.872Z,3.43
2023-02-05T08:17:41.497Z,5.77
2023-02-05T08:20:12.155Z,3.33
2023-02-05T08:22:43.579Z,4.40
2023-02-05T08:25:33.393Z,2.83
2023-02-05T08:28:02.151Z,3.50
2023-02-05T08:30:30.647Z,3.83
2023-02-05T08:32:59.060Z,4.73
2023-02-05T08:35:27.684Z,8.03
2023-02-05T08:37:56.208Z,4.33
2023-02-05T08:40:24.803Z,5.20
2023-02-05T08:42:57.278Z,7.20
2023-02-05T08:45:25.924Z,5.73
2023-02-05T08:47:54.784Z,73.63
2023-02-05T08:50:24.171Z,67.63
2023-02-05T08:52:52.643Z,27.27
2023-02-05T08:55:21.232Z,6.23
2023-02-05T08:57:49.794Z,7.13
2023-02-05T09:00:21.210Z,6.40
2023-02-05T09:02:49.739Z,4.97
2023-02-05T09:05:18.345Z,4.70
2023-02-05T09:07:46.857Z,13.30
2023-02-05T09:10:15.661Z,29.03
2023-02-05T09:12:49.963Z,47.03
2023-02-05T09:15:20.048Z,22.10
2023-02-05T09:17:48.542Z,17.13
2023-02-05T09:20:17.164Z,6.07
2023-02-05T09:22:45.669Z,3.97
2023-02-05T09:25:14.113Z,26.50
2023-02-05T09:27:42.586Z,7.80
2023-02-05T09:30:13.143Z,5.63
2023-02-05T09:32:43.103Z,6.23
2023-02-05T09:35:11.583Z,26.03
2023-02-05T09:37:40.242Z,8.23
2023-02-05T09:40:20.883Z,17.40
2023-02-05T09:43:03.825Z,6.50
2023-02-05T09:45:54.121Z,6.73
2023-02-05T09:48:49.853Z,4.47
2023-02-05T09:51:23.297Z,7.27
2023-02-05T09:54:01.648Z,45.40
2023-02-05T09:56:30.606Z,104.77
2023-02-05T09:59:00.700Z,40.47
2023-02-05T10:01:43.799Z,41.27
2023-02-05T10:04:15.018Z,6.17
2023-02-05T10:07:17.578Z,4.53
2023-02-05T10:10:28.980Z,26.53
2023-02-05T10:13:31.665Z,6.17
2023-02-05T10:16:41.693Z,7.00
2023-02-05T10:19:38.468Z,4.10
2023-02-05T10:22:18.234Z,5.00
2023-02-05T10:25:31.856Z,3.20
2023-02-05T10:28:20.074Z,4.97
2023-02-05T10:30:59.045Z,3.57
2023-02-05T10:33:46.139Z,4.40
2023-02-05T10:36:22.257Z,3.30
2023-02-05T10:39:02.937Z,3.33
2023-02-05T10:41:38.248Z,4.07
2023-02-05T10:44:18.909Z,5.37
2023-02-05T10:46:51.782Z,5.83
2023-02-05T10:49:29.800Z,3.57
2023-02-05T10:51:59.595Z,4.53
2023-02-05T10:54:31.573Z,4.73
2023-02-05T10:57:01.888Z,3.20
2023-02-05T10:59:34.806Z,3.37
2023-02-05T11:02:07.722Z,3.33
2023-02-05T11:04:45.167Z,3.00
2023-02-05T11:07:24.600Z,4.93
2023-02-05T11:10:21.646Z,5.03
2023-02-05T11:12:53.306Z,3.00
2023-02-05T11:15:26.726Z,3.10
2023-02-05T11:18:00.206Z,3.23
2023-02-05T11:20:33.119Z,2.63
2023-02-05T11:23:19.616Z,2.93
2023-02-05T11:25:54.160Z,3.13
2023-02-05T11:28:29.881Z,2.70
2023-02-05T11:31:19.248Z,3.80
2023-02-05T11:33:48.400Z,3.00
2023-02-05T11:36:22.368Z,3.20
2023-02-05T11:38:56.518Z,3.63
2023-02-05T11:41:31.278Z,2.30
2023-02-05T11:44:03.257Z,3.53
2023-02-05T11:46:44.436Z,3.07
2023-02-05T11:49:40.006Z,3.07
2023-02-05T11:52:14.796Z,4.10
2023-02-05T11:54:49.187Z,4.63
2023-02-05T11:57:35.591Z,3.30
2023-02-05T12:00:23.390Z,10.90
2023-02-05T12:03:04.757Z,5.60
2023-02-05T12:05:41.305Z,5.13
2023-02-05T12:08:18.440Z,6.10
2023-02-05T12:11:01.090Z,7.37
2023-02-05T12:13:46.241Z,5.03
2023-02-05T12:16:34.087Z,4.93
2023-02-05T12:19:16.147Z,5.03
2023-02-05T12:21:52.448Z,3.40
2023-02-05T12:25:07.877Z,5.77
2023-02-05T12:27:58.477Z,4.37
2023-02-05T12:30:48.598Z,3.87
2023-02-05T12:33:51.873Z,6.40
2023-02-05T12:36:49.474Z,6.07
2023-02-05T12:39:38.323Z,5.27
2023-02-05T12:42:30.302Z,4.60
2023-02-05T12:45:36.305Z,5.87
2023-02-05T12:48:26.416Z,6.03
2023-02-05T12:51:12.295Z,8.77
2023-02-05T12:54:00.000Z,4.67
2023-02-05T12:56:53.877Z,5.60
2023-02-05T12:59:37.671Z,4.07
2023-02-05T13:02:37.912Z,4.63
2023-02-05T13:05:22.190Z,6.33
2023-02-05T13:07:56.505Z,6.00
2023-02-05T13:10:32.079Z,7.50
2023-02-05T13:13:06.944Z,5.90
2023-02-05T13:15:43.136Z,6.30
2023-02-05T13:18:23.409Z,5.87
2023-02-05T13:21:24.418Z,5.83
2023-02-05T13:24:15.111Z,4.40
2023-02-05T13:27:05.222Z,5.07
2023-02-05T13:33:05.114Z,5.43
2023-02-05T13:35:43.755Z,5.03
2023-02-05T13:38:50.500Z,4.30
2023-02-05T13:41:56.647Z,4.80
2023-02-05T13:45:28.855Z,5.10
2023-02-05T13:48:21.916Z,5.40
2023-02-05T13:51:14.565Z,4.43
2023-02-05T13:54:25.195Z,5.23
2023-02-05T13:57:20.860Z,5.77
2023-02-05T13:59:53.561Z,5.03
2023-02-05T14:02:35.670Z,4.30
2023-02-05T14:05:06.597Z,4.00
2023-02-05T14:07:45.042Z,3.93
2023-02-05T14:10:28.376Z,5.10
2023-02-05T14:13:37.017Z,5.03
2023-02-05T14:16:35.491Z,5.87
2023-02-05T14:19:57.309Z,4.67
2023-02-05T14:22:43.116Z,5.10
2023-02-05T14:26:06.684Z,3.63
2023-02-05T14:28:44.090Z,4.60
2023-02-05T14:31:49.863Z,5.17
2023-02-05T14:34:48.936Z,5.83
2023-02-05T14:37:38.290Z,4.73
2023-02-05T14:40:35.809Z,5.23
2023-02-05T14:43:21.869Z,4.37
2023-02-05T14:45:55.900Z,4.13
2023-02-05T14:48:31.029Z,4.50
2023-02-05T14:51:07.723Z,6.73
2023-02-05T14:53:39.692Z,5.50
2023-02-05T14:56:23.997Z,4.00
2023-02-05T14:59:05.346Z,4.70
2023-02-05T15:01:50.114Z,4.83
2023-02-05T15:04:36.067Z,4.77
2023-02-05T15:07:14.027Z,3.87
2023-02-05T15:09:50.193Z,4.30
2023-02-05T15:13:02.615Z,4.20
2023-02-05T15:15:35.446Z,4.27
2023-02-05T15:18:28.595Z,5.67
2023-02-05T15:20:59.412Z,4.67
2023-02-05T15:23:40.941Z,4.07
2023-02-05T15:26:23.852Z,4.03
2023-02-05T15:29:03.909Z,3.33
2023-02-05T15:31:43.076Z,4.23
2023-02-05T15:34:33.368Z,4.63
2023-02-05T15:37:07.721Z,4.50
2023-02-05T15:39:48.754Z,3.30
2023-02-05T15:42:21.473Z,4.40
2023-02-05T15:44:51.341Z,4.57
2023-02-05T15:47:24.038Z,5.90
2023-02-05T15:49:57.529Z,4.60
2023-02-05T15:52:30.011Z,4.63
2023-02-05T15:55:09.552Z,5.57
2023-02-05T15:57:38.119Z,5.80
2023-02-05T16:00:11.442Z,4.27
2023-02-05T16:02:45.793Z,5.13
2023-02-05T16:05:21.918Z,4.03
2023-02-05T16:07:55.526Z,4.30
2023-02-05T16:10:28.137Z,4.47
2023-02-05T16:13:02.253Z,3.97
2023-02-05T16:16:24.481Z,4.87
2023-02-05T16:18:58.683Z,21.03
2023-02-05T16:21:32.381Z,5.73
2023-02-05T16:24:04.156Z,3.87
2023-02-05T16:26:40.944Z,4.23
2023-02-05T16:29:25.737Z,3.87
2023-02-05T16:32:11.523Z,5.47
2023-02-05T16:34:40.733Z,7.63
2023-02-05T16:37:16.851Z,5.23
2023-02-05T16:39:53.459Z,5.67
2023-02-05T16:42:36.380Z,4.50
2023-02-05T16:45:21.237Z,4.40
2023-02-05T16:48:26.312Z,5.63
2023-02-05T16:50:56.720Z,4.43
2023-02-05T16:53:28.418Z,5.77
2023-02-05T16:56:02.537Z,5.20
2023-02-05T16:58:39.598Z,4.20
2023-02-05T17:01:08.232Z,5.77
2023-02-05T17:03:42.207Z,6.27
2023-02-05T17:06:15.578Z,5.03
2023-02-05T17:08:52.160Z,5.20
2023-02-05T17:11:39.237Z,4.30
2023-02-05T17:14:28.501Z,5.40
2023-02-05T17:17:00.229Z,4.50
2023-02-05T17:19:32.271Z,4.63
2023-02-05T17:22:21.603Z,5.73
2023-02-05T17:24:52.027Z,7.40
2023-02-05T17:27:29.487Z,8.03
2023-02-05T17:30:00.013Z,7.23
2023-02-05T17:32:30.037Z,5.23
2023-02-05T17:35:00.475Z,4.93
2023-02-05T17:37:28.924Z,5.37
2023-02-05T17:39:57.789Z,7.20
2023-02-05T17:42:29.954Z,5.53
2023-02-05T17:44:58.834Z,6.13
2023-02-05T17:47:27.333Z,3.87
2023-02-05T17:49:55.809Z,5.73
2023-02-05T17:52:25.756Z,5.67
2023-02-05T17:54:54.241Z,4.23
2023-02-05T17:57:24.087Z,4.53
2023-02-05T17:59:52.588Z,3.97
2023-02-05T18:02:21.385Z,4.83
2023-02-05T18:04:49.927Z,3.90
2023-02-05T18:07:26.604Z,7.13
2023-02-05T18:09:56.666Z,5.80
2023-02-05T18:12:25.210Z,6.23
2023-02-05T18:14:53.873Z,6.13
2023-02-05T18:17:22.559Z,4.63
2023-02-05T18:19:51.186Z,4.60
2023-02-05T18:22:19.870Z,5.10
2023-02-05T18:24:48.359Z,5.40
2023-02-05T18:27:19.037Z,4.73
2023-02-05T18:30:13.647Z,4.13
2023-02-05T18:32:42.737Z,5.83
2023-02-05T18:35:14.697Z,5.30
2023-02-05T18:37:43.803Z,5.77
2023-02-05T18:40:13.785Z,4.47
2023-02-05T18:42:46.953Z,4.57
2023-02-05T18:45:15.664Z,4.60
2023-02-05T18:47:44.088Z,7.07
2023-02-05T18:50:12.977Z,3.83
2023-02-05T18:52:53.440Z,4.47
2023-02-05T18:55:21.877Z,4.93
2023-02-05T18:57:53.753Z,5.53
2023-02-05T19:00:22.414Z,4.43
2023-02-05T19:02:51.058Z,4.60
2023-02-05T19:05:19.818Z,4.27
2023-02-05T19:07:48.253Z,4.67
2023-02-05T19:10:18.408Z,5.37
2023-02-05T19:12:46.896Z,4.60
2023-02-05T19:15:16.850Z,4.50
2023-02-05T19:17:45.256Z,5.50
2023-02-05T19:20:13.834Z,5.10
2023-02-05T19:23:14.936Z,6.97
2023-02-05T19:25:43.533Z,4.87
2023-02-05T19:28:12.093Z,5.03
2023-02-05T19:30:42.071Z,5.00
2023-02-05T19:33:10.577Z,4.83
2023-02-05T19:35:40.356Z,4.67
2023-02-05T19:38:08.825Z,4.27
2023-02-05T19:40:37.601Z,6.20
2023-02-05T19:43:06.178Z,5.63
2023-02-05T19:45:38.364Z,4.60
2023-02-05T19:48:08.306Z,6.07
2023-02-05T19:50:37.074Z,5.37
2023-02-05T19:53:05.663Z,6.17
2023-02-05T19:55:35.948Z,3.97
2023-02-05T19:58:05.097Z,4.23
2023-02-05T20:00:42.747Z,4.03
2023-02-05T20:03:12.639Z,4.17
2023-02-05T20:05:41.033Z,5.77
2023-02-05T20:08:09.507Z,5.53
2023-02-05T20:10:37.922Z,4.90
2023-02-05T20:13:07.218Z,4.60
2023-02-05T20:15:39.607Z,4.93
2023-02-05T20:18:08.086Z,5.57
2023-02-05T20:20:41.776Z,5.47
2023-02-05T20:23:10.172Z,6.20
2023-02-05T20:25:38.631Z,4.73
2023-02-05T20:28:07.818Z,7.90
2023-02-05T20:30:54.065Z,8.87
2023-02-05T20:33:22.589Z,5.50
2023-02-05T20:35:52.417Z,4.63
2023-02-05T20:38:20.890Z,5.33
2023-02-05T20:40:49.624Z,4.60
2023-02-05T20:43:18.086Z,5.67
2023-02-05T20:45:46.593Z,4.87
2023-02-05T20:48:15.127Z,6.07
2023-02-05T20:50:43.609Z,7.13
2023-02-05T20:53:13.461Z,9.07
2023-02-05T20:55:41.897Z,8.83
2023-02-05T20:58:10.393Z,5.10
2023-02-05T21:00:39.249Z,8.60
2023-02-05T21:03:07.776Z,5.83
2023-02-05T21:05:36.353Z,7.97
2023-02-05T21:08:04.847Z,7.87
2023-02-05T21:10:35.148Z,8.87
2023-02-05T21:13:03.926Z,6.13
2023-02-05T21:15:37.299Z,7.70
2023-02-05T21:18:06.525Z,7.87
2023-02-05T21:20:35.253Z,8.00
2023-02-05T21:23:03.936Z,7.13
2023-02-05T21:25:32.356Z,5.93
2023-02-05T21:28:02.263Z,7.37
2023-02-05T21:30:30.935Z,5.03
2023-02-05T21:32:59.407Z,7.10
2023-02-05T21:35:27.895Z,6.73
2023-02-05T21:37:56.381Z,3.83
2023-02-05T21:40:24.972Z,5.73
2023-02-05T21:42:53.497Z,4.63
2023-02-05T21:45:23.361Z,5.60
2023-02-05T21:47:51.867Z,3.57
2023-02-05T21:50:20.664Z,4.23
2023-02-05T21:52:49.108Z,5.77
2023-02-05T21:55:17.827Z,3.87
2023-02-05T21:57:46.245Z,4.67
2023-02-05T22:00:16.001Z,4.53
2023-02-05T22:02:45.840Z,3.87
2023-02-05T22:05:14.327Z,5.27
2023-02-05T22:07:42.841Z,4.00
2023-02-05T22:10:11.449Z,4.03
2023-02-05T22:12:39.893Z,3.67
2023-02-05T22:15:09.169Z,5.23
2023-02-05T22:17:37.590Z,5.20
2023-02-05T22:20:08.609Z,3.57
2023-02-05T22:22:37.616Z,4.93
2023-02-05T22:25:07.080Z,4.77
2023-02-05T22:27:35.700Z,4.90
2023-02-05T22:30:04.342Z,4.43
2023-02-05T22:32:32.941Z,4.43
2023-02-05T22:35:01.598Z,6.10
2023-02-05T22:37:31.497Z,4.60
2023-02-05T22:39:59.925Z,5.57
2023-02-05T22:42:28.478Z,4.33
2023-02-05T22:44:56.940Z,5.30
2023-02-05T22:47:25.433Z,3.83
2023-02-05T22:49:53.910Z,5.57
2023-02-05T22:52:22.366Z,5.77
2023-02-05T22:54:52.267Z,6.13
2023-02-05T22:57:20.839Z,5.23
2023-02-05T22:59:49.326Z,3.77
2023-02-05T23:02:17.758Z,5.43
2023-02-05T23:04:46.276Z,5.17
2023-02-05T23:07:14.684Z,5.70
2023-02-05T23:09:43.167Z,4.67
2023-02-05T23:12:13.073Z,4.17
2023-02-05T23:14:41.572Z,3.00
2023-02-05T23:17:10.548Z,3.53
2023-02-05T23:19:39.110Z,3.93
2023-02-05T23:22:09.663Z,5.30
2023-02-05T23:24:38.621Z,5.87
2023-02-05T23:27:07.108Z,4.57
2023-02-05T23:29:37.691Z,3.50
2023-02-05T23:32:07.125Z,3.40
2023-02-05T23:34:35.792Z,3.83
2023-02-05T23:37:04.210Z,3.97
2023-02-05T23:39:32.669Z,6.40
2023-02-05T23:42:01.298Z,5.23
2023-02-05T23:44:29.911Z,7.03
2023-02-05T23:47:00.553Z,6.40
2023-02-05T23:49:29.163Z,3.87
2023-02-05T23:51:57.912Z,4.33
2023-02-05T23:54:26.689Z,4.93
2023-02-05T23:56:56.798Z,3.70
2023-02-05T23:59:25.287Z,4.77
